Terminal Aerodrome Forecast
Issued by NWS

Current Version | Previous Version | Text Only | Print | Product List | Glossary On
Versions: 1 2 3 4 5 6 7 8 9 10 11 12 13 14 15 16 17 18 19 20 21 22 23 24 25 26 27 28 29 30 31 32
475
FTUS45 KBOI 051720
TAFTWF
TAF
KTWF 051720Z 0518/0618 VRB06KT P6SM FEW025 SCT045
     FM060500 16007KT P6SM SCT030 OVC200
     FM061500 21009KT P6SM OVC200=

USA.gov is the U.S. government's official web portal to all federal, state and local government web resources and services.